createdAt,value
2019-03-09T00:02:10.323Z,10.69
2019-03-09T00:04:41.659Z,10.89
2019-03-09T00:07:13.132Z,10.83
2019-03-09T00:09:44.754Z,10.88
2019-03-09T00:12:17.679Z,10.82
2019-03-09T00:14:48.891Z,11.00
2019-03-09T00:17:20.090Z,11.12
2019-03-09T00:19:51.558Z,11.00
2019-03-09T00:22:22.974Z,11.14
2019-03-09T00:24:58.281Z,11.00
2019-03-09T00:27:48.612Z,11.01
2019-03-09T00:30:27.505Z,11.15
2019-03-09T00:32:58.744Z,11.23
2019-03-09T00:35:29.939Z,11.24
2019-03-09T00:38:01.278Z,11.28
2019-03-09T00:40:32.895Z,11.10
2019-03-09T00:43:04.158Z,11.11
2019-03-09T00:45:35.636Z,11.17
2019-03-09T00:48:06.619Z,11.25
2019-03-09T00:50:37.871Z,11.33
2019-03-09T00:53:09.208Z,11.29
2019-03-09T00:55:40.700Z,11.41
2019-03-09T00:58:12.363Z,11.40
2019-03-09T01:00:43.436Z,11.36
2019-03-09T01:03:14.647Z,11.36
2019-03-09T01:05:45.959Z,11.19
2019-03-09T01:08:17.216Z,11.31
2019-03-09T01:10:48.279Z,11.22
2019-03-09T01:13:19.262Z,11.23
2019-03-09T01:15:50.542Z,11.32
2019-03-09T01:18:22.101Z,11.41
2019-03-09T01:20:54.568Z,11.34
2019-03-09T01:23:25.975Z,11.29
2019-03-09T01:25:59.003Z,11.20
2019-03-09T01:28:30.065Z,11.25
2019-03-09T01:31:01.908Z,11.21
2019-03-09T01:33:32.968Z,11.11
2019-03-09T01:36:04.366Z,11.23
2019-03-09T01:38:35.983Z,11.19
2019-03-09T01:41:07.076Z,11.21
2019-03-09T01:43:38.050Z,11.28
2019-03-09T01:46:09.195Z,11.27
2019-03-09T01:48:40.848Z,11.30
2019-03-09T01:51:11.826Z,11.32
2019-03-09T01:53:42.830Z,11.30
2019-03-09T01:56:14.160Z,11.40
2019-03-09T01:58:45.410Z,11.47
2019-03-09T02:01:17.084Z,11.50
2019-03-09T02:03:48.067Z,11.35
2019-03-09T02:06:19.321Z,11.31
2019-03-09T02:08:50.817Z,11.38
2019-03-09T02:11:22.747Z,11.31
2019-03-09T02:13:54.035Z,11.26
2019-03-09T02:16:25.403Z,11.31
2019-03-09T02:18:56.426Z,11.44
2019-03-09T02:21:28.456Z,11.25
2019-03-09T02:23:59.520Z,11.27
2019-03-09T02:26:30.579Z,11.34
2019-03-09T02:29:01.926Z,11.26
2019-03-09T02:31:33.559Z,11.20
2019-03-09T02:34:04.858Z,11.15
2019-03-09T02:36:35.900Z,11.14
2019-03-09T02:39:23.384Z,11.25
2019-03-09T02:41:55.399Z,11.26
2019-03-09T02:44:26.999Z,11.31
2019-03-09T02:47:00.309Z,11.32
2019-03-09T02:49:31.670Z,11.26
2019-03-09T02:52:02.719Z,11.30
2019-03-09T02:54:33.768Z,11.05
2019-03-09T02:57:05.111Z,11.17
2019-03-09T02:59:36.544Z,11.21
2019-03-09T03:02:33.390Z,11.39
2019-03-09T03:05:04.749Z,11.53
2019-03-09T03:07:36.306Z,11.55
2019-03-09T03:10:08.298Z,11.44
2019-03-09T03:12:39.691Z,11.51
2019-03-09T03:15:11.217Z,11.40
2019-03-09T03:17:42.332Z,11.44
2019-03-09T03:20:13.440Z,11.55
2019-03-09T03:22:44.749Z,11.57
2019-03-09T03:25:16.984Z,11.30
2019-03-09T03:27:47.951Z,11.36
2019-03-09T03:30:19.051Z,11.27
2019-03-09T03:32:51.323Z,11.41
2019-03-09T03:35:22.732Z,11.35
2019-03-09T03:37:53.724Z,11.13
2019-03-09T03:40:25.054Z,11.14
2019-03-09T03:42:56.689Z,11.19
2019-03-09T03:45:28.897Z,11.20
2019-03-09T03:48:00.190Z,11.14
2019-03-09T03:50:31.190Z,11.21
2019-03-09T03:53:02.675Z,11.20
2019-03-09T03:55:34.543Z,11.43
2019-03-09T03:58:06.322Z,11.25
2019-03-09T04:00:37.518Z,11.03
2019-03-09T04:03:08.908Z,11.02
2019-03-09T04:05:42.570Z,11.12
2019-03-09T04:08:14.119Z,10.97
2019-03-09T04:10:45.344Z,10.91
2019-03-09T04:13:17.256Z,10.74
2019-03-09T04:15:48.493Z,10.80
2019-03-09T04:18:19.582Z,10.79
2019-03-09T04:20:50.895Z,10.77
2019-03-09T04:23:22.206Z,10.91
2019-03-09T04:25:53.298Z,10.89
2019-03-09T04:28:24.278Z,11.00
2019-03-09T04:30:55.859Z,10.86
2019-03-09T04:33:26.936Z,10.72
2019-03-09T04:35:58.750Z,10.81
2019-03-09T04:38:30.030Z,10.88
2019-03-09T04:41:01.405Z,10.87
2019-03-09T04:43:32.399Z,10.67
2019-03-09T04:46:03.966Z,10.68
2019-03-09T04:48:35.644Z,10.60
2019-03-09T04:51:06.862Z,10.59
2019-03-09T04:53:38.123Z,10.57
2019-03-09T04:56:09.183Z,10.43
2019-03-09T04:58:40.710Z,10.42
2019-03-09T05:01:11.775Z,10.56
2019-03-09T05:03:45.328Z,10.39
2019-03-09T05:06:19.489Z,10.39
2019-03-09T05:09:23.315Z,10.32
2019-03-09T05:11:54.311Z,10.44
2019-03-09T05:14:26.913Z,10.64
2019-03-09T05:16:58.996Z,10.38
2019-03-09T05:19:30.309Z,10.16
2019-03-09T05:22:01.537Z,10.32
2019-03-09T05:24:32.608Z,10.34
2019-03-09T05:27:03.600Z,10.43
2019-03-09T05:29:35.296Z,10.16
2019-03-09T05:32:06.264Z,9.96
2019-03-09T05:34:38.035Z,10.04
2019-03-09T05:37:10.403Z,9.69
2019-03-09T05:39:41.416Z,9.58
2019-03-09T05:42:12.391Z,9.77
2019-03-09T05:44:43.998Z,9.77
2019-03-09T05:47:15.314Z,9.74
2019-03-09T05:49:46.273Z,9.62
2019-03-09T05:52:37.245Z,9.69
2019-03-09T05:55:19.949Z,9.68
2019-03-09T05:57:51.496Z,9.67
2019-03-09T06:00:22.593Z,9.48
2019-03-09T06:02:53.830Z,9.53
2019-03-09T06:05:36.593Z,9.39
2019-03-09T06:08:08.932Z,9.49
2019-03-09T06:10:39.903Z,9.52
2019-03-09T06:13:10.946Z,9.74
2019-03-09T06:15:44.059Z,9.84
2019-03-09T06:18:14.760Z,9.81
2019-03-09T06:20:45.825Z,9.84
2019-03-09T06:23:17.810Z,9.91
2019-03-09T06:25:48.913Z,9.79
2019-03-09T06:28:19.949Z,10.04
2019-03-09T06:30:51.439Z,10.16
2019-03-09T06:33:36.754Z,10.00
2019-03-09T06:36:40.065Z,10.06
2019-03-09T06:39:21.163Z,10.07
2019-03-09T06:42:33.102Z,9.87
2019-03-09T06:45:05.394Z,9.89
2019-03-09T06:47:36.369Z,9.92
2019-03-09T06:50:09.767Z,9.89
2019-03-09T06:52:40.800Z,9.91
2019-03-09T06:55:12.703Z,10.07
2019-03-09T06:57:44.145Z,10.04
2019-03-09T07:00:46.768Z,9.87
2019-03-09T07:03:18.161Z,9.88
2019-03-09T07:05:49.284Z,10.03
2019-03-09T07:08:20.618Z,10.24
2019-03-09T07:10:51.586Z,10.21
2019-03-09T07:13:23.237Z,10.30
2019-03-09T07:15:54.258Z,10.19
2019-03-09T07:18:33.869Z,10.22
2019-03-09T07:21:05.189Z,10.07
2019-03-09T07:23:36.524Z,10.29
2019-03-09T07:26:07.509Z,10.30
2019-03-09T07:28:38.593Z,10.35
2019-03-09T07:31:09.730Z,10.51
2019-03-09T07:33:40.959Z,10.37
2019-03-09T07:36:12.004Z,10.34
2019-03-09T07:38:43.640Z,10.42
2019-03-09T07:41:14.626Z,10.42
2019-03-09T07:43:45.661Z,10.56
2019-03-09T07:46:17.663Z,10.69
2019-03-09T07:48:48.671Z,10.58
2019-03-09T07:51:19.705Z,10.69
2019-03-09T07:53:51.033Z,10.82
2019-03-09T07:56:22.844Z,11.03
2019-03-09T07:58:53.860Z,10.96
2019-03-09T08:01:24.892Z,11.12
2019-03-09T08:03:56.848Z,11.16
2019-03-09T08:06:28.190Z,11.31
2019-03-09T08:08:59.914Z,11.38
2019-03-09T08:11:30.894Z,11.32
2019-03-09T08:14:02.345Z,11.53
2019-03-09T08:16:35.734Z,11.45
2019-03-09T08:19:07.229Z,11.58
2019-03-09T08:21:39.550Z,11.56
2019-03-09T08:24:10.632Z,11.70
2019-03-09T08:26:42.181Z,11.89
2019-03-09T08:29:13.743Z,11.76
2019-03-09T08:31:44.767Z,11.89
2019-03-09T08:34:15.764Z,11.84
2019-03-09T08:36:47.440Z,11.86
2019-03-09T08:39:19.093Z,12.18
2019-03-09T08:41:50.681Z,12.31
2019-03-09T08:44:22.000Z,12.28
2019-03-09T08:46:53.058Z,12.29
2019-03-09T08:49:24.119Z,12.20
2019-03-09T08:51:55.939Z,12.23
2019-03-09T08:54:27.004Z,12.15
2019-03-09T08:56:59.260Z,12.04
2019-03-09T08:59:30.862Z,12.11
2019-03-09T09:02:02.129Z,12.29
2019-03-09T09:04:34.721Z,12.11
2019-03-09T09:07:06.030Z,12.28
2019-03-09T09:09:37.545Z,12.34
2019-03-09T09:12:08.676Z,12.28
2019-03-09T09:14:40.021Z,12.14
2019-03-09T09:17:11.374Z,12.27
2019-03-09T09:19:42.434Z,12.23
2019-03-09T09:22:13.449Z,12.30
2019-03-09T09:24:45.325Z,12.13
2019-03-09T09:27:16.375Z,12.01
2019-03-09T09:29:47.532Z,12.04
2019-03-09T09:32:18.739Z,12.12
2019-03-09T09:34:50.395Z,12.15
2019-03-09T09:37:21.674Z,12.23
2019-03-09T09:39:52.990Z,12.17
2019-03-09T09:42:24.159Z,12.19
2019-03-09T09:44:55.522Z,12.15
2019-03-09T09:47:26.559Z,12.11
2019-03-09T09:49:57.797Z,12.21
2019-03-09T09:52:29.609Z,12.21
2019-03-09T09:55:00.972Z,12.16
2019-03-09T09:57:32.222Z,12.17
2019-03-09T10:00:03.740Z,12.10
2019-03-09T10:02:34.715Z,12.20
2019-03-09T10:05:06.352Z,12.25
2019-03-09T10:07:37.622Z,12.28
2019-03-09T10:10:11.028Z,12.15
2019-03-09T10:12:42.092Z,12.19
2019-03-09T10:15:19.416Z,12.08
2019-03-09T10:17:50.508Z,12.09
2019-03-09T10:20:22.034Z,12.13
2019-03-09T10:23:02.982Z,12.05
2019-03-09T10:25:26.586Z,12.22
2019-03-09T10:27:57.960Z,12.16
2019-03-09T10:30:29.731Z,12.18
2019-03-09T10:33:00.716Z,12.34
2019-03-09T10:35:33.126Z,12.41
2019-03-09T10:38:04.100Z,12.47
2019-03-09T10:40:35.229Z,12.51
2019-03-09T10:43:06.308Z,12.59
2019-03-09T10:45:37.704Z,12.48
2019-03-09T10:48:08.755Z,12.36
2019-03-09T10:50:39.798Z,12.66
2019-03-09T10:53:10.835Z,12.46
2019-03-09T10:55:42.693Z,12.58
2019-03-09T10:58:14.192Z,12.38
2019-03-09T11:00:45.233Z,12.47
2019-03-09T11:03:16.322Z,12.46
2019-03-09T11:05:47.508Z,12.51
2019-03-09T11:08:18.605Z,12.56
2019-03-09T11:10:50.084Z,12.82
2019-03-09T11:13:21.486Z,12.85
2019-03-09T11:15:52.835Z,12.82
2019-03-09T11:18:24.055Z,12.63
2019-03-09T11:20:55.198Z,12.79
2019-03-09T11:23:26.206Z,12.75
2019-03-09T11:25:57.168Z,12.64
2019-03-09T11:28:28.153Z,12.73
2019-03-09T11:31:00.414Z,12.67
2019-03-09T11:33:31.462Z,12.64
2019-03-09T11:36:02.537Z,12.64
2019-03-09T11:38:34.160Z,12.68
2019-03-09T11:41:05.339Z,12.71
2019-03-09T11:43:36.646Z,12.72
2019-03-09T11:46:08.198Z,12.71
2019-03-09T11:48:39.183Z,12.57
2019-03-09T11:51:10.213Z,12.71
2019-03-09T11:53:41.204Z,12.68
2019-03-09T11:56:12.486Z,12.73
2019-03-09T11:58:43.464Z,12.73
2019-03-09T12:01:14.460Z,12.68
2019-03-09T12:03:47.294Z,12.64
2019-03-09T12:06:18.598Z,12.61
2019-03-09T12:08:49.822Z,12.46
2019-03-09T12:13:11.032Z,12.62
2019-03-09T12:15:42.606Z,12.79
2019-03-09T12:18:14.319Z,12.78
2019-03-09T12:20:45.262Z,12.73
2019-03-09T12:23:22.202Z,12.71
2019-03-09T12:25:53.713Z,12.76
2019-03-09T12:28:25.242Z,12.75
2019-03-09T12:30:56.238Z,12.92
2019-03-09T12:33:27.305Z,13.01
2019-03-09T12:35:58.410Z,13.00
2019-03-09T12:38:30.777Z,12.89
2019-03-09T12:41:01.768Z,13.00
2019-03-09T12:43:33.148Z,13.02
2019-03-09T12:46:04.256Z,12.94
2019-03-09T12:48:35.634Z,12.95
2019-03-09T12:51:06.629Z,12.95
2019-03-09T12:53:37.633Z,13.05
2019-03-09T12:56:08.942Z,12.92
2019-03-09T12:58:39.944Z,12.95
2019-03-09T13:01:11.280Z,13.14
2019-03-09T13:03:42.342Z,13.16
2019-03-09T13:06:13.437Z,13.22
2019-03-09T13:08:44.914Z,13.14
2019-03-09T13:11:16.583Z,13.22
2019-03-09T13:13:47.823Z,13.30
2019-03-09T13:16:19.165Z,13.20
2019-03-09T13:18:50.969Z,13.28
2019-03-09T13:21:22.068Z,13.37
2019-03-09T13:23:54.142Z,13.35
2019-03-09T13:26:26.233Z,13.11
2019-03-09T13:28:57.354Z,13.24
2019-03-09T13:31:28.758Z,13.22
2019-03-09T13:34:01.262Z,13.22
2019-03-09T13:36:32.248Z,13.35
2019-03-09T13:39:05.037Z,13.23
2019-03-09T13:41:36.618Z,13.29
2019-03-09T13:44:07.703Z,13.33
2019-03-09T13:46:39.007Z,13.30
2019-03-09T13:49:10.375Z,13.24
2019-03-09T13:51:41.959Z,13.10
2019-03-09T13:54:14.645Z,12.95
2019-03-09T13:56:45.957Z,13.01
2019-03-09T13:59:18.962Z,13.04
2019-03-09T14:01:50.007Z,12.94
2019-03-09T14:04:21.294Z,12.95
2019-03-09T14:06:52.796Z,12.99
2019-03-09T14:09:23.951Z,12.92
2019-03-09T14:11:55.144Z,12.79
2019-03-09T14:14:27.767Z,12.84
2019-03-09T14:17:02.673Z,12.70
2019-03-09T14:19:34.438Z,12.59
2019-03-09T14:22:05.525Z,12.76
2019-03-09T14:24:37.546Z,12.64
2019-03-09T14:27:08.616Z,12.76
2019-03-09T14:29:39.724Z,12.67
2019-03-09T14:32:10.710Z,12.65
2019-03-09T14:34:42.184Z,12.57
2019-03-09T14:37:13.276Z,12.49
2019-03-09T14:39:44.820Z,12.34
2019-03-09T14:42:16.306Z,12.47
2019-03-09T14:44:47.625Z,12.61
2019-03-09T14:47:18.742Z,12.57
2019-03-09T14:49:50.058Z,12.51
2019-03-09T14:52:21.052Z,12.68
2019-03-09T14:54:52.115Z,12.55
2019-03-09T14:57:23.683Z,12.64
2019-03-09T14:59:54.902Z,12.56
2019-03-09T15:02:26.253Z,12.67
2019-03-09T15:04:57.557Z,12.63
2019-03-09T15:07:28.565Z,12.63
2019-03-09T15:10:00.786Z,12.54
2019-03-09T15:12:31.861Z,12.42
2019-03-09T15:15:03.491Z,12.43
2019-03-09T15:17:34.469Z,12.43
2019-03-09T15:20:06.097Z,12.44
2019-03-09T15:22:37.076Z,12.50
2019-03-09T15:25:09.377Z,12.46
2019-03-09T15:27:40.364Z,12.55
2019-03-09T15:30:13.725Z,12.69
2019-03-09T15:32:45.075Z,12.61
2019-03-09T15:35:16.956Z,12.74
2019-03-09T15:37:48.415Z,12.50
2019-03-09T15:40:21.037Z,12.40
2019-03-09T15:42:52.554Z,12.41
2019-03-09T15:45:23.947Z,12.47
2019-03-09T15:47:55.031Z,12.47
2019-03-09T15:50:26.471Z,12.54
2019-03-09T15:52:57.455Z,12.59
2019-03-09T15:55:28.450Z,12.63
2019-03-09T15:58:00.739Z,12.45
2019-03-09T16:00:32.193Z,12.39
2019-03-09T16:03:03.527Z,12.31
2019-03-09T16:05:35.067Z,12.50
2019-03-09T16:08:06.244Z,12.73
2019-03-09T16:10:37.540Z,12.69
2019-03-09T16:13:08.917Z,12.61
2019-03-09T16:15:40.361Z,12.54
2019-03-09T16:18:11.958Z,12.61
2019-03-09T16:20:43.161Z,12.57
2019-03-09T16:23:14.572Z,12.62
2019-03-09T16:25:45.677Z,12.64
2019-03-09T16:28:17.049Z,12.70
2019-03-09T16:30:48.374Z,12.70
2019-03-09T16:33:20.336Z,12.79
2019-03-09T16:35:51.590Z,12.75
2019-03-09T16:38:23.145Z,12.57
2019-03-09T16:40:54.381Z,12.71
2019-03-09T16:43:25.422Z,12.71
2019-03-09T16:45:56.661Z,12.64
2019-03-09T16:48:28.014Z,12.64
2019-03-09T16:50:59.242Z,12.56
2019-03-09T16:53:31.027Z,12.56
2019-03-09T16:56:03.133Z,12.67
2019-03-09T16:58:34.739Z,12.75
2019-03-09T17:01:05.862Z,12.57
2019-03-09T17:03:36.928Z,12.66
2019-03-09T17:06:07.900Z,12.55
2019-03-09T17:08:38.924Z,12.51
2019-03-09T17:11:09.989Z,12.62
2019-03-09T17:13:41.006Z,12.66
2019-03-09T17:16:12.424Z,12.56
2019-03-09T17:18:44.315Z,12.60
2019-03-09T17:21:16.338Z,12.69
2019-03-09T17:23:47.636Z,12.52
2019-03-09T17:26:19.352Z,12.60
2019-03-09T17:28:50.905Z,12.61
2019-03-09T17:31:21.965Z,12.61
2019-03-09T17:33:53.224Z,12.50
2019-03-09T17:36:24.476Z,12.69
2019-03-09T17:38:56.298Z,12.56
2019-03-09T17:41:27.663Z,12.44
2019-03-09T17:43:58.712Z,12.41
2019-03-09T17:46:36.150Z,12.58
2019-03-09T17:49:07.101Z,12.51
2019-03-09T17:51:38.098Z,12.51
2019-03-09T17:54:09.645Z,12.57
2019-03-09T17:56:41.115Z,12.71
2019-03-09T17:59:12.204Z,12.55
2019-03-09T18:01:43.273Z,12.66
2019-03-09T18:04:15.520Z,12.74
2019-03-09T18:06:48.816Z,12.64
2019-03-09T18:09:26.009Z,12.79
2019-03-09T18:11:57.133Z,12.76
2019-03-09T18:14:28.387Z,12.86
2019-03-09T18:16:59.598Z,12.78
2019-03-09T18:19:31.340Z,12.65
2019-03-09T18:22:03.967Z,12.81
2019-03-09T18:24:35.047Z,12.74
2019-03-09T18:27:06.177Z,12.77
2019-03-09T18:29:37.514Z,12.66
2019-03-09T18:32:08.752Z,12.75
2019-03-09T18:34:39.824Z,12.84
2019-03-09T18:37:12.073Z,12.79
2019-03-09T18:39:43.530Z,12.87
2019-03-09T18:42:14.559Z,12.94
2019-03-09T18:44:45.481Z,13.05
2019-03-09T18:47:16.538Z,13.00
2019-03-09T18:49:47.969Z,12.98
2019-03-09T18:52:19.280Z,12.98
2019-03-09T18:54:51.046Z,12.90
2019-03-09T18:57:22.338Z,12.88
2019-03-09T18:59:54.010Z,12.98
2019-03-09T19:02:26.235Z,13.08
2019-03-09T19:04:57.190Z,12.95
2019-03-09T19:07:28.443Z,12.90
2019-03-09T19:09:59.722Z,12.89
2019-03-09T19:12:31.451Z,12.99
2019-03-09T19:15:02.904Z,12.89
2019-03-09T19:17:34.845Z,12.79
2019-03-09T19:20:07.021Z,12.82
2019-03-09T19:22:38.323Z,12.78
2019-03-09T19:25:10.416Z,12.82
2019-03-09T19:27:41.466Z,12.90
2019-03-09T19:30:14.653Z,12.83
2019-03-09T19:32:46.090Z,12.94
2019-03-09T19:35:17.270Z,12.81
2019-03-09T19:37:48.344Z,12.92
2019-03-09T19:40:20.102Z,12.90
2019-03-09T19:42:51.259Z,12.86
2019-03-09T19:45:22.768Z,12.73
2019-03-09T19:47:53.951Z,12.81
2019-03-09T19:50:25.273Z,12.72
2019-03-09T19:52:58.937Z,12.75
2019-03-09T19:55:29.924Z,12.74
2019-03-09T19:58:01.553Z,12.64
2019-03-09T20:00:32.552Z,12.89
2019-03-09T20:03:03.531Z,13.00
2019-03-09T20:05:34.937Z,12.93
2019-03-09T20:08:05.967Z,12.82
2019-03-09T20:10:37.186Z,12.72
2019-03-09T20:13:08.594Z,12.72
2019-03-09T20:15:39.614Z,12.88
2019-03-09T20:18:11.041Z,12.81
2019-03-09T20:20:42.378Z,12.90
2019-03-09T20:23:13.443Z,12.98
2019-03-09T20:25:44.875Z,13.08
2019-03-09T20:28:16.431Z,13.02
2019-03-09T20:30:47.596Z,12.92
2019-03-09T20:33:19.597Z,12.88
2019-03-09T20:35:50.609Z,12.82
2019-03-09T20:38:22.217Z,12.97
2019-03-09T20:40:53.490Z,12.94
2019-03-09T20:43:24.807Z,12.90
2019-03-09T20:45:56.360Z,12.94
2019-03-09T20:48:29.219Z,12.99
2019-03-09T20:51:00.343Z,12.87
2019-03-09T20:53:32.391Z,13.03
2019-03-09T20:56:03.496Z,13.03
2019-03-09T20:58:34.586Z,13.08
2019-03-09T21:01:05.827Z,13.03
2019-03-09T21:03:36.946Z,13.05
2019-03-09T21:06:08.007Z,13.05
2019-03-09T21:08:38.980Z,12.97
2019-03-09T21:11:09.976Z,12.83
2019-03-09T21:13:41.283Z,13.04
2019-03-09T21:16:12.574Z,13.11
2019-03-09T21:18:43.604Z,13.15
2019-03-09T21:21:14.585Z,13.16
2019-03-09T21:23:45.597Z,13.29
2019-03-09T21:26:16.851Z,13.24
2019-03-09T21:28:48.157Z,13.08
2019-03-09T21:31:20.025Z,13.05
2019-03-09T21:33:51.093Z,12.99
2019-03-09T21:36:22.345Z,13.16
2019-03-09T21:38:53.395Z,13.11
2019-03-09T21:41:24.430Z,13.06
2019-03-09T21:43:55.454Z,13.18
2019-03-09T21:46:27.105Z,13.35
2019-03-09T21:48:58.091Z,13.34
2019-03-09T21:51:29.405Z,13.38
2019-03-09T21:54:01.970Z,13.34
2019-03-09T21:56:33.139Z,13.20
2019-03-09T21:59:04.258Z,13.21
2019-03-09T22:01:36.327Z,13.27
2019-03-09T22:04:07.402Z,13.26
2019-03-09T22:06:38.966Z,13.31
2019-03-09T22:09:10.137Z,13.08
2019-03-09T22:11:41.612Z,13.02
2019-03-09T22:14:12.761Z,13.12
2019-03-09T22:16:44.057Z,13.26
2019-03-09T22:19:15.353Z,13.17
2019-03-09T22:21:46.408Z,13.24
2019-03-09T22:24:17.933Z,13.14
2019-03-09T22:26:50.116Z,13.30
2019-03-09T22:29:21.052Z,13.31
2019-03-09T22:31:52.384Z,13.20
2019-03-09T22:34:23.638Z,13.16
2019-03-09T22:36:54.702Z,13.11
2019-03-09T22:39:26.014Z,13.18
2019-03-09T22:41:57.018Z,13.29
2019-03-09T22:44:28.101Z,13.24
2019-03-09T22:46:59.464Z,13.37
2019-03-09T22:49:30.438Z,13.25
2019-03-09T22:52:02.252Z,13.30
2019-03-09T22:54:34.022Z,13.26
2019-03-09T22:57:06.635Z,13.38
2019-03-09T22:59:38.936Z,13.33
2019-03-09T23:02:10.157Z,13.25
2019-03-09T23:04:41.149Z,13.24
2019-03-09T23:07:12.149Z,13.23
2019-03-09T23:09:43.436Z,13.23
2019-03-09T23:12:14.561Z,13.23
2019-03-09T23:14:46.859Z,13.32
2019-03-09T23:17:17.869Z,13.21
2019-03-09T23:19:49.540Z,13.02
2019-03-09T23:22:21.535Z,13.07
2019-03-09T23:24:52.503Z,13.13
2019-03-09T23:27:23.748Z,13.16
2019-03-09T23:29:54.726Z,13.10
2019-03-09T23:32:25.707Z,13.01
2019-03-09T23:34:57.161Z,13.13
2019-03-09T23:37:28.208Z,13.10
2019-03-09T23:39:59.505Z,13.09
2019-03-09T23:42:31.165Z,13.01
2019-03-09T23:45:03.613Z,13.11
2019-03-09T23:47:35.009Z,13.13
2019-03-09T23:50:07.438Z,13.15
2019-03-09T23:52:38.516Z,12.99
2019-03-09T23:55:20.737Z,13.01
2019-03-09T23:57:43.917Z,13.09
